createdAt,value
2023-01-13T00:00:54.931Z,64.40
2023-01-13T00:02:27.626Z,64.28
2023-01-13T00:04:00.950Z,64.45
2023-01-13T00:05:32.609Z,64.63
2023-01-13T00:07:04.198Z,64.48
2023-01-13T00:08:35.907Z,65.07
2023-01-13T00:10:10.564Z,65.32
2023-01-13T00:11:42.121Z,65.15
2023-01-13T00:13:13.839Z,64.73
2023-01-13T00:14:45.529Z,64.69
2023-01-13T00:16:18.702Z,64.70
2023-01-13T00:17:50.354Z,65.06
2023-01-13T00:19:21.978Z,64.96
2023-01-13T00:20:59.284Z,65.18
2023-01-13T00:22:34.924Z,65.11
2023-01-13T00:24:06.724Z,65.74
2023-01-13T00:25:38.633Z,65.56
2023-01-13T00:27:10.165Z,65.29
2023-01-13T00:28:42.531Z,65.31
2023-01-13T00:30:14.398Z,65.00
2023-01-13T00:31:45.983Z,64.64
2023-01-13T00:33:17.875Z,64.73
2023-01-13T00:34:49.441Z,64.91
2023-01-13T00:36:21.095Z,64.44
2023-01-13T00:37:52.750Z,64.84
2023-01-13T00:39:24.442Z,64.97
2023-01-13T00:41:01.032Z,64.95
2023-01-13T00:42:51.400Z,64.92
2023-01-13T00:44:23.011Z,64.45
2023-01-13T00:45:55.254Z,64.92
2023-01-13T00:47:26.811Z,64.70
2023-01-13T00:48:58.395Z,64.85
2023-01-13T00:50:30.467Z,64.47
2023-01-13T00:52:02.623Z,64.67
2023-01-13T00:53:37.475Z,64.42
2023-01-13T00:55:09.236Z,64.35
2023-01-13T00:56:41.485Z,64.45
2023-01-13T00:58:13.158Z,64.46
2023-01-13T00:59:44.716Z,65.33
2023-01-13T01:01:22.515Z,65.80
2023-01-13T01:02:54.110Z,65.49
2023-01-13T01:04:25.704Z,64.95
2023-01-13T01:06:03.332Z,65.37
2023-01-13T01:07:35.053Z,64.73
2023-01-13T01:09:06.746Z,65.29
2023-01-13T01:10:38.329Z,65.13
2023-01-13T01:12:09.940Z,64.75
2023-01-13T01:13:42.141Z,65.02
2023-01-13T01:15:13.636Z,64.84
2023-01-13T01:16:45.175Z,64.62
2023-01-13T01:18:16.736Z,65.22
2023-01-13T01:19:48.278Z,65.43
2023-01-13T01:21:20.990Z,65.13
2023-01-13T01:22:53.079Z,64.95
2023-01-13T01:24:24.656Z,65.09
2023-01-13T01:26:03.390Z,65.77
2023-01-13T01:27:35.153Z,65.20
2023-01-13T01:29:06.671Z,64.71
2023-01-13T01:30:39.594Z,64.89
2023-01-13T01:32:11.112Z,65.20
2023-01-13T01:33:43.177Z,65.28
2023-01-13T01:35:14.812Z,64.85
2023-01-13T01:36:46.369Z,65.32
2023-01-13T01:38:17.939Z,65.00
2023-01-13T01:39:49.504Z,65.17
2023-01-13T01:41:25.052Z,64.99
2023-01-13T01:43:15.054Z,64.94
2023-01-13T01:44:53.573Z,65.13
2023-01-13T01:46:31.363Z,65.31
2023-01-13T01:48:04.878Z,64.90
2023-01-13T01:49:38.692Z,64.56
2023-01-13T01:51:13.593Z,64.52
2023-01-13T01:52:49.915Z,64.49
2023-01-13T01:54:31.124Z,65.09
2023-01-13T01:56:03.451Z,65.02
2023-01-13T01:57:54.839Z,65.37
2023-01-13T01:59:28.196Z,65.09
2023-01-13T02:01:00.679Z,64.40
2023-01-13T02:02:32.605Z,64.49
2023-01-13T02:04:16.143Z,64.70
2023-01-13T02:05:47.827Z,65.29
2023-01-13T02:07:26.230Z,65.71
2023-01-13T02:09:00.628Z,66.17
2023-01-13T02:10:32.609Z,65.98
2023-01-13T02:12:23.079Z,65.21
2023-01-13T02:13:54.723Z,65.99
2023-01-13T02:15:42.194Z,66.27
2023-01-13T02:17:27.792Z,65.42
2023-01-13T02:19:41.307Z,65.87
2023-01-13T02:21:48.256Z,65.73
2023-01-13T02:24:16.442Z,65.54
2023-01-13T02:26:33.147Z,65.26
2023-01-13T02:28:21.938Z,65.00
2023-01-13T02:30:31.097Z,64.75
2023-01-13T02:32:15.370Z,66.02
2023-01-13T02:33:59.469Z,65.79
2023-01-13T02:35:45.289Z,65.97
2023-01-13T02:37:23.740Z,65.98
2023-01-13T02:39:10.051Z,66.58
2023-01-13T02:41:19.033Z,65.90
2023-01-13T02:43:33.465Z,66.20
2023-01-13T02:45:13.527Z,66.64
2023-01-13T02:46:59.279Z,66.15
2023-01-13T02:48:31.503Z,65.44
2023-01-13T02:50:08.912Z,65.61
2023-01-13T02:51:43.194Z,66.13
2023-01-13T02:53:21.254Z,66.27
2023-01-13T02:54:57.977Z,65.39
2023-01-13T02:56:30.682Z,65.39
2023-01-13T02:58:06.219Z,65.89
2023-01-13T02:59:40.677Z,65.11
2023-01-13T03:01:12.516Z,65.83
2023-01-13T03:02:44.197Z,65.60
2023-01-13T03:04:46.564Z,65.47
2023-01-13T03:06:42.627Z,65.60
2023-01-13T03:08:56.862Z,65.90
2023-01-13T03:11:05.990Z,66.16
2023-01-13T03:12:42.748Z,66.75
2023-01-13T03:14:30.359Z,67.08
2023-01-13T03:16:23.129Z,67.60
2023-01-13T03:18:13.120Z,66.96
2023-01-13T03:20:07.265Z,67.04
2023-01-13T03:21:56.925Z,67.91
2023-01-13T03:23:49.055Z,67.87
2023-01-13T03:25:31.608Z,68.54
2023-01-13T03:27:12.739Z,67.87
2023-01-13T03:29:08.746Z,68.71
2023-01-13T03:30:50.087Z,68.50
2023-01-13T03:32:30.981Z,69.29
2023-01-13T03:34:13.251Z,69.21
2023-01-13T03:35:46.003Z,69.40
2023-01-13T03:37:22.350Z,69.57
2023-01-13T03:38:58.916Z,68.82
2023-01-13T03:40:35.393Z,68.93
2023-01-13T03:42:17.565Z,68.48
2023-01-13T03:44:13.316Z,68.43
2023-01-13T03:45:50.378Z,68.91
2023-01-13T03:47:41.323Z,68.91
2023-01-13T03:49:19.742Z,68.27
2023-01-13T03:50:55.021Z,68.27
2023-01-13T03:52:32.448Z,67.92
2023-01-13T03:54:09.385Z,68.23
2023-01-13T03:55:47.184Z,67.89
2023-01-13T03:57:24.067Z,68.65
2023-01-13T03:58:57.679Z,68.71
2023-01-13T04:00:38.056Z,68.44
2023-01-13T04:02:25.688Z,68.40
2023-01-13T04:03:59.253Z,68.46
2023-01-13T04:05:33.307Z,69.05
2023-01-13T04:07:41.860Z,68.64
2023-01-13T04:09:22.421Z,68.72
2023-01-13T04:10:58.949Z,68.47
2023-01-13T04:12:51.525Z,68.56
2023-01-13T04:14:25.854Z,68.41
2023-01-13T04:16:00.577Z,67.96
2023-01-13T04:17:32.271Z,67.56
2023-01-13T04:19:03.832Z,68.26
2023-01-13T04:20:35.456Z,67.74
2023-01-13T04:22:07.214Z,67.45
2023-01-13T04:23:38.859Z,67.95
2023-01-13T04:25:11.406Z,68.41
2023-01-13T04:26:43.095Z,67.59
2023-01-13T04:28:15.590Z,67.14
2023-01-13T04:29:47.146Z,67.39
2023-01-13T04:31:18.788Z,67.25
2023-01-13T04:32:50.566Z,67.57
2023-01-13T04:34:22.180Z,68.16
2023-01-13T04:35:53.837Z,68.05
2023-01-13T04:37:25.435Z,68.60
2023-01-13T04:38:57.076Z,67.46
2023-01-13T04:40:29.006Z,67.92
2023-01-13T04:42:02.455Z,67.49
2023-01-13T04:43:34.094Z,67.58
2023-01-13T04:45:06.397Z,66.86
2023-01-13T04:46:37.997Z,66.62
2023-01-13T04:48:09.820Z,66.64
2023-01-13T04:49:41.464Z,67.50
2023-01-13T04:51:13.089Z,66.92
2023-01-13T04:52:46.332Z,67.35
2023-01-13T04:54:17.994Z,67.66
2023-01-13T04:55:49.802Z,67.78
2023-01-13T04:57:21.413Z,67.49
2023-01-13T04:58:53.043Z,67.03
2023-01-13T05:00:24.657Z,67.04
2023-01-13T05:01:56.340Z,66.64
2023-01-13T05:03:27.950Z,66.81
2023-01-13T05:05:00.345Z,67.08
2023-01-13T05:06:32.030Z,67.13
2023-01-13T05:08:04.555Z,67.11
2023-01-13T05:09:36.550Z,67.77
2023-01-13T05:11:28.074Z,67.66
2023-01-13T05:13:18.249Z,67.23
2023-01-13T05:15:08.381Z,67.14
2023-01-13T05:16:58.558Z,67.76
2023-01-13T05:18:31.244Z,68.23
2023-01-13T05:20:03.954Z,67.19
2023-01-13T05:21:54.455Z,67.76
2023-01-13T05:23:44.711Z,68.16
2023-01-13T05:25:22.384Z,68.11
2023-01-13T05:26:53.993Z,68.38
2023-01-13T05:28:25.588Z,68.69
2023-01-13T05:29:57.611Z,68.19
2023-01-13T05:31:29.366Z,68.30
2023-01-13T05:33:01.002Z,68.84
2023-01-13T05:34:32.588Z,68.60
2023-01-13T05:36:04.428Z,68.89
2023-01-13T05:37:36.287Z,68.22
2023-01-13T05:39:08.135Z,68.54
2023-01-13T05:40:59.761Z,68.04
2023-01-13T05:42:50.082Z,68.78
2023-01-13T05:44:21.742Z,68.47
2023-01-13T05:46:03.174Z,67.28
2023-01-13T05:47:34.932Z,68.22
2023-01-13T05:49:06.519Z,68.72
2023-01-13T05:50:38.170Z,68.44
2023-01-13T05:52:09.911Z,68.93
2023-01-13T05:53:41.640Z,68.68
2023-01-13T05:55:13.307Z,69.27
2023-01-13T05:56:44.954Z,69.54
2023-01-13T05:58:18.426Z,69.70
2023-01-13T05:59:50.167Z,69.95
2023-01-13T06:01:21.798Z,69.92
2023-01-13T06:02:53.470Z,70.43
2023-01-13T06:04:25.145Z,70.36
2023-01-13T06:05:59.483Z,70.23
2023-01-13T06:07:31.157Z,70.45
2023-01-13T06:09:02.840Z,70.41
2023-01-13T06:10:35.595Z,70.49
2023-01-13T06:12:07.266Z,70.52
2023-01-13T06:13:38.923Z,70.49
2023-01-13T06:15:10.870Z,70.73
2023-01-13T06:16:42.511Z,70.38
2023-01-13T06:18:14.348Z,70.27
2023-01-13T06:19:46.109Z,71.08
2023-01-13T06:21:17.795Z,70.93
2023-01-13T06:22:51.889Z,70.82
2023-01-13T06:24:23.573Z,71.50
2023-01-13T06:26:08.339Z,71.33
2023-01-13T06:27:40.425Z,70.53
2023-01-13T06:29:15.053Z,70.44
2023-01-13T06:30:54.398Z,70.43
2023-01-13T06:32:32.447Z,70.46
2023-01-13T06:34:11.027Z,70.79
2023-01-13T06:35:48.692Z,71.72
2023-01-13T06:37:25.318Z,71.35
2023-01-13T06:39:00.839Z,70.72
2023-01-13T06:40:32.598Z,70.76
2023-01-13T06:42:23.518Z,70.27
2023-01-13T06:43:55.236Z,70.87
2023-01-13T06:45:30.699Z,70.58
2023-01-13T06:47:02.517Z,70.58
2023-01-13T06:48:35.489Z,71.34
2023-01-13T06:50:07.526Z,71.71
2023-01-13T06:51:39.164Z,71.45
2023-01-13T06:53:10.927Z,71.59
2023-01-13T06:54:42.585Z,72.10
2023-01-13T06:56:14.156Z,71.33
2023-01-13T06:57:50.434Z,71.78
2023-01-13T06:59:22.770Z,71.12
2023-01-13T07:00:54.549Z,70.79
2023-01-13T07:02:27.898Z,71.35
2023-01-13T07:03:59.617Z,70.45
2023-01-13T07:05:31.192Z,70.72
2023-01-13T07:07:02.880Z,70.85
2023-01-13T07:08:34.673Z,70.53
2023-01-13T07:10:09.754Z,70.49
2023-01-13T07:11:41.501Z,70.07
2023-01-13T07:13:31.748Z,69.73
2023-01-13T07:15:18.508Z,70.14
2023-01-13T07:16:52.380Z,70.88
2023-01-13T07:18:25.118Z,70.30
2023-01-13T07:19:58.026Z,70.61
2023-01-13T07:21:29.742Z,70.84
2023-01-13T07:23:01.568Z,70.49
2023-01-13T07:24:33.335Z,71.04
2023-01-13T07:26:06.078Z,71.15
2023-01-13T07:27:37.775Z,71.12
2023-01-13T07:29:09.492Z,70.97
2023-01-13T07:30:41.129Z,70.81
2023-01-13T07:32:12.763Z,70.14
2023-01-13T07:33:44.659Z,70.57
2023-01-13T07:35:17.575Z,69.95
2023-01-13T07:36:49.198Z,70.59
2023-01-13T07:38:20.923Z,70.92
2023-01-13T07:39:52.515Z,70.30
2023-01-13T07:41:42.863Z,70.31
2023-01-13T07:43:32.390Z,69.97
2023-01-13T07:45:04.437Z,70.15
2023-01-13T07:46:36.916Z,70.04
2023-01-13T07:48:08.587Z,70.62
2023-01-13T07:49:40.246Z,70.48
2023-01-13T07:51:12.405Z,70.88
2023-01-13T07:52:44.048Z,70.86
2023-01-13T07:54:15.698Z,70.99
2023-01-13T07:55:47.398Z,70.33
2023-01-13T07:57:19.085Z,70.81
2023-01-13T07:58:52.857Z,70.16
2023-01-13T08:00:24.565Z,70.42
2023-01-13T08:01:56.364Z,70.57
2023-01-13T08:03:28.144Z,70.40
2023-01-13T08:04:59.775Z,71.40
2023-01-13T08:06:31.582Z,71.56
2023-01-13T08:08:03.322Z,71.13
2023-01-13T08:09:35.108Z,71.43
2023-01-13T08:11:08.683Z,71.23
2023-01-13T08:12:58.737Z,70.69
2023-01-13T08:14:30.540Z,70.56
2023-01-13T08:16:05.461Z,70.14
2023-01-13T08:17:37.124Z,70.23
2023-01-13T08:19:08.778Z,70.78
2023-01-13T08:20:40.550Z,70.75
2023-01-13T08:22:12.293Z,71.91
2023-01-13T08:23:45.188Z,71.62
2023-01-13T08:25:17.601Z,72.28
2023-01-13T08:26:49.306Z,73.23
2023-01-13T08:28:21.030Z,74.97
2023-01-13T08:29:52.700Z,75.95
2023-01-13T08:31:24.691Z,76.73
2023-01-13T08:32:56.589Z,78.27
2023-01-13T08:34:28.394Z,79.58
2023-01-13T08:36:05.015Z,76.95
2023-01-13T08:37:36.852Z,78.08
2023-01-13T08:39:08.625Z,77.09
2023-01-13T08:40:40.805Z,76.67
2023-01-13T08:42:12.593Z,77.53
2023-01-13T08:43:44.375Z,77.74
2023-01-13T08:45:16.308Z,77.65
2023-01-13T08:46:48.021Z,78.19
2023-01-13T08:48:19.648Z,79.73
2023-01-13T08:49:51.301Z,79.95
2023-01-13T08:51:22.937Z,79.66
2023-01-13T08:52:54.588Z,78.84
2023-01-13T08:54:26.407Z,79.81
2023-01-13T08:55:58.252Z,80.76
2023-01-13T08:57:30.450Z,79.84
2023-01-13T08:59:02.616Z,80.86
2023-01-13T09:00:34.332Z,81.03
2023-01-13T09:02:14.441Z,79.84
2023-01-13T09:03:46.164Z,79.90
2023-01-13T09:05:18.015Z,80.31
2023-01-13T09:06:50.829Z,81.21
2023-01-13T09:08:22.667Z,81.55
2023-01-13T09:09:56.779Z,81.68
2023-01-13T09:11:54.238Z,81.70
2023-01-13T09:13:26.449Z,80.95
2023-01-13T09:14:58.380Z,80.80
2023-01-13T09:16:30.055Z,80.05
2023-01-13T09:18:02.736Z,80.30
2023-01-13T09:19:35.036Z,80.79
2023-01-13T09:21:07.200Z,80.34
2023-01-13T09:22:40.711Z,80.33
2023-01-13T09:24:12.370Z,79.49
2023-01-13T09:25:44.071Z,80.00
2023-01-13T09:27:15.847Z,79.80
2023-01-13T09:28:47.701Z,80.35
2023-01-13T09:30:19.510Z,79.99
2023-01-13T09:31:51.186Z,79.91
2023-01-13T09:33:41.884Z,79.17
2023-01-13T09:35:13.734Z,79.22
2023-01-13T09:36:45.629Z,79.45
2023-01-13T09:38:17.777Z,78.61
2023-01-13T09:39:50.389Z,79.00
2023-01-13T09:41:46.763Z,78.75
2023-01-13T09:43:54.003Z,78.85
2023-01-13T09:45:50.412Z,79.80
2023-01-13T09:47:27.798Z,80.04
2023-01-13T09:49:01.773Z,80.67
2023-01-13T09:51:00.612Z,80.81
2023-01-13T09:52:32.338Z,80.92
2023-01-13T09:54:16.561Z,81.06
2023-01-13T09:55:48.933Z,80.31
2023-01-13T09:57:22.301Z,81.36
2023-01-13T09:58:54.195Z,80.90
2023-01-13T10:00:35.016Z,82.07
2023-01-13T10:02:21.784Z,82.55
2023-01-13T10:03:53.848Z,81.85
2023-01-13T10:05:56.488Z,81.25
2023-01-13T10:07:32.073Z,81.57
2023-01-13T10:09:03.834Z,82.41
2023-01-13T10:10:42.941Z,81.23
2023-01-13T10:12:37.431Z,81.58
2023-01-13T10:14:18.132Z,82.39
2023-01-13T10:16:02.715Z,81.84
2023-01-13T10:17:34.781Z,82.05
2023-01-13T10:19:16.336Z,81.55
2023-01-13T10:21:05.315Z,81.17
2023-01-13T10:23:02.398Z,80.92
2023-01-13T10:25:11.849Z,80.70
2023-01-13T10:27:25.281Z,82.64
2023-01-13T10:28:58.248Z,82.04
2023-01-13T10:30:40.057Z,82.14
2023-01-13T10:32:11.858Z,82.41
2023-01-13T10:33:43.569Z,81.64
2023-01-13T10:35:15.324Z,80.32
2023-01-13T10:37:11.424Z,80.35
2023-01-13T10:38:46.141Z,78.99
2023-01-13T10:40:18.880Z,77.75
2023-01-13T10:42:01.151Z,77.30
2023-01-13T10:43:32.890Z,78.04
2023-01-13T10:45:04.983Z,78.65
2023-01-13T10:46:52.912Z,78.48
2023-01-13T10:48:33.577Z,78.10
2023-01-13T10:50:10.935Z,79.20
2023-01-13T10:51:44.929Z,80.46
2023-01-13T10:53:24.475Z,79.33
2023-01-13T10:54:56.921Z,79.44
2023-01-13T10:56:33.821Z,79.43
2023-01-13T10:58:18.077Z,78.91
2023-01-13T10:59:51.073Z,79.03
2023-01-13T11:01:27.463Z,77.40
2023-01-13T11:03:25.839Z,78.01
2023-01-13T11:04:58.193Z,78.20
2023-01-13T11:06:33.055Z,79.87
2023-01-13T11:08:05.252Z,78.57
2023-01-13T11:09:37.107Z,78.95
2023-01-13T11:11:25.251Z,83.34
2023-01-13T11:13:20.872Z,84.52
2023-01-13T11:14:52.977Z,85.90
2023-01-13T11:16:25.999Z,84.58
2023-01-13T11:18:13.622Z,85.18
2023-01-13T11:19:52.529Z,81.95
2023-01-13T11:21:38.643Z,85.75
2023-01-13T11:23:38.372Z,85.76
2023-01-13T11:25:21.610Z,85.00
2023-01-13T11:27:01.817Z,85.32
2023-01-13T11:28:41.239Z,85.90
2023-01-13T11:30:50.730Z,85.16
2023-01-13T11:32:24.385Z,83.87
2023-01-13T11:34:40.320Z,85.55
2023-01-13T11:36:20.357Z,84.70
2023-01-13T11:37:57.941Z,82.25
2023-01-13T11:39:49.472Z,83.38
2023-01-13T11:41:42.196Z,83.63
2023-01-13T11:43:26.461Z,83.38
2023-01-13T11:45:35.167Z,82.98
2023-01-13T11:47:11.004Z,82.85
2023-01-13T11:48:43.482Z,82.60
2023-01-13T11:50:19.941Z,83.50
2023-01-13T11:52:01.073Z,82.48
2023-01-13T11:54:04.835Z,82.39
2023-01-13T11:55:47.972Z,79.54
2023-01-13T11:57:25.625Z,79.69
2023-01-13T11:59:15.516Z,79.83
2023-01-13T12:01:25.851Z,79.78
2023-01-13T12:03:00.091Z,79.93
2023-01-13T12:04:40.321Z,79.96
2023-01-13T12:06:41.275Z,81.36
2023-01-13T12:08:15.604Z,78.46
2023-01-13T12:09:56.386Z,77.17
2023-01-13T12:11:55.468Z,76.98
2023-01-13T12:13:45.112Z,79.18
2023-01-13T12:15:22.658Z,79.88
2023-01-13T12:16:54.595Z,79.00
2023-01-13T12:18:47.456Z,76.74
2023-01-13T12:20:33.582Z,77.89
2023-01-13T12:22:25.999Z,76.47
2023-01-13T12:24:13.321Z,75.86
2023-01-13T12:25:49.476Z,76.96
2023-01-13T12:27:39.095Z,75.02
2023-01-13T12:29:19.712Z,76.21
2023-01-13T12:31:02.683Z,77.23
2023-01-13T12:32:38.074Z,78.29
2023-01-13T12:34:12.869Z,76.47
2023-01-13T12:36:11.582Z,77.18
2023-01-13T12:37:54.982Z,78.74
2023-01-13T12:39:43.320Z,78.92
2023-01-13T12:42:06.167Z,77.74
2023-01-13T12:43:59.652Z,77.73
2023-01-13T12:45:32.963Z,79.36
2023-01-13T12:47:04.626Z,80.00
2023-01-13T12:48:54.765Z,77.96
2023-01-13T12:50:26.385Z,77.94
2023-01-13T12:51:58.144Z,78.29
2023-01-13T12:53:32.467Z,79.15
2023-01-13T12:55:09.976Z,79.38
2023-01-13T12:56:45.383Z,75.94
2023-01-13T12:58:18.083Z,75.75
2023-01-13T13:00:04.879Z,75.32
2023-01-13T13:01:37.672Z,76.17
2023-01-13T13:03:12.295Z,73.12
2023-01-13T13:04:52.087Z,72.79
2023-01-13T13:06:29.371Z,73.98
2023-01-13T13:08:18.747Z,74.18
2023-01-13T13:09:55.836Z,73.92
2023-01-13T13:11:57.982Z,73.92
2023-01-13T13:13:48.511Z,72.45
2023-01-13T13:15:26.616Z,74.50
2023-01-13T13:17:01.124Z,77.60
2023-01-13T13:18:33.063Z,78.84
2023-01-13T13:20:04.859Z,77.57
2023-01-13T13:22:14.013Z,75.02
2023-01-13T13:24:04.022Z,76.66
2023-01-13T13:25:35.823Z,75.74
2023-01-13T13:27:27.423Z,73.67
2023-01-13T13:29:08.730Z,74.57
2023-01-13T13:30:50.290Z,75.70
2023-01-13T13:32:49.656Z,76.15
2023-01-13T13:34:29.967Z,76.36
2023-01-13T13:36:12.770Z,76.87
2023-01-13T13:38:15.047Z,75.54
2023-01-13T13:40:05.391Z,76.18
2023-01-13T13:41:56.097Z,76.47
2023-01-13T13:44:02.932Z,75.51
2023-01-13T13:45:53.242Z,73.54
2023-01-13T13:47:25.057Z,71.83
2023-01-13T13:48:56.665Z,71.09
2023-01-13T13:50:33.168Z,71.20
2023-01-13T13:52:32.613Z,70.14
2023-01-13T13:54:05.068Z,70.75
2023-01-13T13:55:36.787Z,68.41
2023-01-13T13:57:44.500Z,71.32
2023-01-13T13:59:21.430Z,72.77
2023-01-13T14:00:54.329Z,71.18
2023-01-13T14:02:31.465Z,72.66
2023-01-13T14:04:20.833Z,72.85
2023-01-13T14:05:59.907Z,72.58
2023-01-13T14:07:31.564Z,72.96
2023-01-13T14:09:04.377Z,73.42
2023-01-13T14:10:38.121Z,72.42
2023-01-13T14:12:24.903Z,72.04
2023-01-13T14:14:17.268Z,70.76
2023-01-13T14:16:18.242Z,73.13
2023-01-13T14:17:50.046Z,72.72
2023-01-13T14:19:32.498Z,72.34
2023-01-13T14:21:26.045Z,73.59
2023-01-13T14:23:01.706Z,72.39
2023-01-13T14:24:34.087Z,72.45
2023-01-13T14:26:13.086Z,73.25
2023-01-13T14:27:44.972Z,73.49
2023-01-13T14:29:22.851Z,74.05
2023-01-13T14:30:56.404Z,74.44
2023-01-13T14:32:36.737Z,74.00
2023-01-13T14:34:32.106Z,75.38
2023-01-13T14:36:16.320Z,75.14
2023-01-13T14:37:50.434Z,74.34
2023-01-13T14:39:33.688Z,74.48
2023-01-13T14:41:28.337Z,73.05
2023-01-13T14:43:01.331Z,73.30
2023-01-13T14:44:36.078Z,73.54
2023-01-13T14:46:07.881Z,74.46
2023-01-13T14:47:39.659Z,73.09
2023-01-13T14:49:49.872Z,71.65
2023-01-13T14:51:25.372Z,70.76
2023-01-13T14:52:57.738Z,71.69
2023-01-13T14:54:41.521Z,70.22
2023-01-13T14:56:38.030Z,69.91
2023-01-13T14:58:23.373Z,71.64
2023-01-13T14:59:59.423Z,70.13
2023-01-13T15:01:36.505Z,69.51
2023-01-13T15:03:08.521Z,70.40
2023-01-13T15:04:40.241Z,70.11
2023-01-13T15:06:24.121Z,68.49
2023-01-13T15:08:00.767Z,69.80
2023-01-13T15:09:54.569Z,69.35
2023-01-13T15:11:28.981Z,70.97
2023-01-13T15:13:03.652Z,71.04
2023-01-13T15:14:36.014Z,71.41
2023-01-13T15:16:13.898Z,71.38
2023-01-13T15:17:46.863Z,71.17
2023-01-13T15:19:18.429Z,73.20
2023-01-13T15:20:52.749Z,73.04
2023-01-13T15:22:24.431Z,72.44
2023-01-13T15:23:56.236Z,73.86
2023-01-13T15:25:36.502Z,73.53
2023-01-13T15:27:17.826Z,74.64
2023-01-13T15:28:50.381Z,73.64
2023-01-13T15:30:26.099Z,73.64
2023-01-13T15:31:57.760Z,74.69
2023-01-13T15:33:29.465Z,73.29
2023-01-13T15:35:01.217Z,73.30
2023-01-13T15:36:34.515Z,74.74
2023-01-13T15:38:12.035Z,73.94
2023-01-13T15:39:44.029Z,73.56
2023-01-13T15:41:15.867Z,73.55
2023-01-13T15:43:06.382Z,75.95
2023-01-13T15:44:56.647Z,76.60
2023-01-13T15:46:40.783Z,76.77
2023-01-13T15:48:12.943Z,76.13
2023-01-13T15:49:45.950Z,76.13
2023-01-13T15:51:17.931Z,77.35
2023-01-13T15:52:49.716Z,76.86
2023-01-13T15:54:24.634Z,75.49
2023-01-13T15:55:59.012Z,76.04
2023-01-13T15:57:32.884Z,74.46
2023-01-13T15:59:10.711Z,74.81
2023-01-13T16:00:42.599Z,72.33
2023-01-13T16:02:18.472Z,72.94
2023-01-13T16:03:50.259Z,72.58
2023-01-13T16:05:22.247Z,72.88
2023-01-13T16:06:55.423Z,74.29
2023-01-13T16:08:27.078Z,72.72
2023-01-13T16:10:01.799Z,73.13
2023-01-13T16:11:33.896Z,73.81
2023-01-13T16:13:05.596Z,75.15
2023-01-13T16:14:37.333Z,73.47
2023-01-13T16:16:20.349Z,75.00
2023-01-13T16:17:56.701Z,75.47
2023-01-13T16:19:28.377Z,74.94
2023-01-13T16:21:00.253Z,75.32
2023-01-13T16:22:32.037Z,76.81
2023-01-13T16:24:04.611Z,77.85
2023-01-13T16:25:36.433Z,77.63
2023-01-13T16:27:15.719Z,77.72
2023-01-13T16:28:48.006Z,77.67
2023-01-13T16:30:26.756Z,79.03
2023-01-13T16:31:58.401Z,79.42
2023-01-13T16:33:30.014Z,79.95
2023-01-13T16:35:01.682Z,80.32
2023-01-13T16:36:37.300Z,80.16
2023-01-13T16:38:26.833Z,80.33
2023-01-13T16:40:01.179Z,79.93
2023-01-13T16:41:33.675Z,79.01
2023-01-13T16:43:06.795Z,78.18
2023-01-13T16:44:38.597Z,78.93
2023-01-13T16:46:28.333Z,79.35
2023-01-13T16:48:00.430Z,80.44
2023-01-13T16:49:32.153Z,80.34
2023-01-13T16:51:05.062Z,80.36
2023-01-13T16:52:36.679Z,79.61
2023-01-13T16:54:08.460Z,78.89
2023-01-13T16:55:41.583Z,79.80
2023-01-13T16:57:13.701Z,79.37
2023-01-13T16:58:45.463Z,78.30
2023-01-13T17:00:17.976Z,79.25
2023-01-13T17:01:49.800Z,79.35
2023-01-13T17:03:21.732Z,78.98
2023-01-13T17:04:53.417Z,79.68
2023-01-13T17:06:31.770Z,79.46
2023-01-13T17:08:03.484Z,78.45
2023-01-13T17:09:35.256Z,77.65
2023-01-13T17:11:06.995Z,78.14
2023-01-13T17:12:39.893Z,76.94
2023-01-13T17:14:18.177Z,77.66
2023-01-13T17:15:50.842Z,77.42
2023-01-13T17:17:27.729Z,77.17
2023-01-13T17:18:59.410Z,77.12
2023-01-13T17:20:31.159Z,77.49
2023-01-13T17:22:02.892Z,77.52
2023-01-13T17:23:34.563Z,78.12
2023-01-13T17:25:07.208Z,79.44
2023-01-13T17:26:47.173Z,80.00
2023-01-13T17:28:18.921Z,80.59
2023-01-13T17:29:50.566Z,79.75
2023-01-13T17:31:22.230Z,79.51
2023-01-13T17:32:53.997Z,80.43
2023-01-13T17:34:25.824Z,79.96
2023-01-13T17:35:57.497Z,80.80
2023-01-13T17:37:29.637Z,81.51
2023-01-13T17:39:01.539Z,82.40
2023-01-13T17:40:33.300Z,82.32
2023-01-13T17:42:05.111Z,82.14
2023-01-13T17:43:36.842Z,82.59
2023-01-13T17:45:11.552Z,81.96
2023-01-13T17:46:44.115Z,81.35
2023-01-13T17:48:15.767Z,79.77
2023-01-13T17:49:47.478Z,79.03
2023-01-13T17:51:22.522Z,78.30
2023-01-13T17:52:54.422Z,77.64
2023-01-13T17:54:26.406Z,77.43
2023-01-13T17:55:58.314Z,77.36
2023-01-13T17:57:30.004Z,76.55
2023-01-13T17:59:01.755Z,78.23
2023-01-13T18:00:33.827Z,79.32
2023-01-13T18:02:05.757Z,77.74
2023-01-13T18:03:38.988Z,78.95
2023-01-13T18:05:12.601Z,78.96
2023-01-13T18:06:44.917Z,79.96
2023-01-13T18:08:16.944Z,78.58
2023-01-13T18:09:48.647Z,79.46
2023-01-13T18:11:22.169Z,79.36
2023-01-13T18:12:53.923Z,79.09
2023-01-13T18:14:25.985Z,79.22
2023-01-13T18:16:04.682Z,79.27
2023-01-13T18:17:36.288Z,79.14
2023-01-13T18:19:26.432Z,79.51
2023-01-13T18:21:17.315Z,79.82
2023-01-13T18:23:07.462Z,79.80
2023-01-13T18:24:57.489Z,80.23
2023-01-13T18:26:47.852Z,80.14
2023-01-13T18:28:19.697Z,81.43
2023-01-13T18:29:53.983Z,80.54
2023-01-13T18:31:26.483Z,82.10
2023-01-13T18:32:58.288Z,81.67
2023-01-13T18:34:30.048Z,82.11
2023-01-13T18:36:06.851Z,82.25
2023-01-13T18:37:41.920Z,83.16
2023-01-13T18:39:13.764Z,82.75
2023-01-13T18:40:45.558Z,82.08
2023-01-13T18:42:36.336Z,82.25
2023-01-13T18:44:08.511Z,82.93
2023-01-13T18:45:40.272Z,83.57
2023-01-13T18:47:11.890Z,83.00
2023-01-13T18:48:43.591Z,82.57
2023-01-13T18:50:17.169Z,82.87
2023-01-13T18:51:48.793Z,83.87
2023-01-13T18:53:23.951Z,82.64
2023-01-13T18:54:55.687Z,82.30
2023-01-13T18:56:27.391Z,82.88
2023-01-13T18:57:59.384Z,82.66
2023-01-13T18:59:33.195Z,82.66
2023-01-13T19:01:06.343Z,82.32
2023-01-13T19:02:38.978Z,81.69
2023-01-13T19:04:16.118Z,83.33
2023-01-13T19:05:47.732Z,82.55
2023-01-13T19:07:24.287Z,82.13
2023-01-13T19:08:56.209Z,83.08
2023-01-13T19:10:31.874Z,83.41
2023-01-13T19:12:06.174Z,83.35
2023-01-13T19:13:38.175Z,84.66
2023-01-13T19:15:10.724Z,83.09
2023-01-13T19:16:42.394Z,83.47
2023-01-13T19:18:14.931Z,83.54
2023-01-13T19:19:49.045Z,83.45
2023-01-13T19:21:20.917Z,84.56
2023-01-13T19:22:54.495Z,83.72
2023-01-13T19:24:26.293Z,84.04
2023-01-13T19:26:05.806Z,83.89
2023-01-13T19:27:38.940Z,84.87
2023-01-13T19:29:10.648Z,82.96
2023-01-13T19:30:42.461Z,82.88
2023-01-13T19:32:15.065Z,82.42
2023-01-13T19:33:47.102Z,82.38
2023-01-13T19:35:20.153Z,82.11
2023-01-13T19:36:53.343Z,82.60
2023-01-13T19:38:26.555Z,83.77
2023-01-13T19:39:59.247Z,84.57
2023-01-13T19:41:49.514Z,84.06
2023-01-13T19:43:40.066Z,84.56
2023-01-13T19:45:29.346Z,84.83
2023-01-13T19:47:01.033Z,85.14
2023-01-13T19:48:33.239Z,84.94
2023-01-13T19:50:08.769Z,84.65
2023-01-13T19:51:40.582Z,85.86
2023-01-13T19:53:17.992Z,85.99
2023-01-13T19:54:49.991Z,86.67
2023-01-13T19:56:21.944Z,87.03
2023-01-13T19:57:53.714Z,86.52
2023-01-13T19:59:29.124Z,87.78
2023-01-13T20:01:08.017Z,87.24
2023-01-13T20:02:45.018Z,87.19
2023-01-13T20:04:19.296Z,86.71
2023-01-13T20:05:52.617Z,86.74
2023-01-13T20:07:26.022Z,86.85
2023-01-13T20:08:57.858Z,85.82
2023-01-13T20:10:30.756Z,85.50
2023-01-13T20:12:09.120Z,86.24
2023-01-13T20:13:41.382Z,85.41
2023-01-13T20:15:13.615Z,85.09
2023-01-13T20:16:45.504Z,84.43
2023-01-13T20:18:17.455Z,84.79
2023-01-13T20:19:50.325Z,84.88
2023-01-13T20:21:23.187Z,84.62
2023-01-13T20:22:55.379Z,84.26
2023-01-13T20:24:27.781Z,83.95
2023-01-13T20:26:00.692Z,84.46
2023-01-13T20:27:33.180Z,84.09
2023-01-13T20:29:05.414Z,83.68
2023-01-13T20:30:40.511Z,83.70
2023-01-13T20:32:12.838Z,83.91
2023-01-13T20:33:50.546Z,83.12
2023-01-13T20:35:24.572Z,84.01
2023-01-13T20:36:56.869Z,84.78
2023-01-13T20:38:29.276Z,83.44
2023-01-13T20:40:05.162Z,82.76
2023-01-13T20:41:55.615Z,83.40
2023-01-13T20:43:27.882Z,83.02
2023-01-13T20:45:01.272Z,82.81
2023-01-13T20:46:35.452Z,82.44
2023-01-13T20:48:07.536Z,82.48
2023-01-13T20:49:39.386Z,82.80
2023-01-13T20:51:11.192Z,83.10
2023-01-13T20:52:43.700Z,82.60
2023-01-13T20:54:15.430Z,81.77